Walnut Ridge, AR

5:49 PM CDT on May 22, 2015 (GMT -0500)
Corning | | Change Station
CLOSE
Current Station
Airport
Location: Corning,
Elevation: 292 ft
Nearby Weather Stations
Active Advisory: Flood Warning Active Notice: Record Report, Public Information Statement

Elev 292 ft 36.40 °N, 90.65 °W | Updated 14 minutes ago

Partly Cloudy
Partly Cloudy
68 °F
Feels Like 68 °F
N
6
Wind Variable Wind from NE
Gusts mph

Today
High -- | Low -- °F
--% Chance of Precip.
Yesterday
High -- | Low -- °F
Precip. -- in
5:53 AM 8:08 PM
Waxing Crescent, 24% visible
Pressure 30.25 in
Visibility 10.0 miles
Clouds
Dew Point 50 °F
Humidity 52%
Rainfall 0.00 in
Snow Depth Not available.
UV Not available.
Pollen 6.20 out of 12
Air Quality Not available.
Flu Activity No Activity
METAR K4M9 222235Z AUTO 05005KT 10SM 20/10 A3025 RMK AO2

More Conditions Fewer Conditions

Pressure 30.25 in
Visibility 10.0 miles
Clouds
Dew Point 50 °F
Humidity 52%
Rainfall 0.00 in
Snow Depth Not available.
UV Not available.
Pollen 6.20 out of 12
Air Quality Not available.
Flu Activity No Activity
METAR K4M9 222235Z AUTO 05005KT 10SM 20/10 A3025 RMK AO2

More Conditions Fewer Conditions

10-Day Weather Forecast

Almanac

Astronomy

May. 22, 2015 Rise Set
Actual Time
Civil Twilight
Nautical Twilight
Astronomical Twilight
Moon
Length of Visible Light
Length of Day
Tomorrow will be .
, % of the Moon is Illuminated

Today's Extremes

State Highs State Lows

Community

WunderPhotos

Upload Photos

1,823,323 photos uploaded!

WunderBlogs® & News

Nearby

Air Quality

  Air Quality AQ Index Pollutant
Not available.

Snow Depth

Station Depth Elevation

Earthquake Activity

City Distance Mag. Time & Date
Minimum magnitude displayed is 2.5.

Coastal Water Temperatures

Place Temperature

Stations

Nearby Weather Stations

Station Location Temp. Windchill Dew Point Humidity Wind Precip. Elev Updated Type
                   
Flood Warning
Statement as of 9:54 AM CDT on May 22, 2015

The Flood Warning continues for
the Black River at Black Rock.
* Until further notice... or until the warning is cancelled.
* At 9:00 am Friday the stage was 18.1 feet.
* Minor flooding is occurring and minor flooding is forecast.
* Flood stage is 14.0 feet.
* Forecast... the river will continue to fall to a stage of 17.7 feet
by Saturday morning.
* Impact... at 17.0 feet... low lying cultivated land and pastures in
Lawrence, Jackson, and Independence counties flood.




             Fld observed forecast 7 am
location stg stg day time Sat sun Mon Tue Wed

Black River
Black Rock 14 18.1 Fri 09 am 17.7 17.1 16.4 15.9 15.2




Lat... Lon 3570 9140 3591 9125 3612 9115 3610 9101
3588 9110 3564 9128